sensor_id;sensor_type;location;lat;lon;timestamp;P1;durP1;ratioP1;P2;durP2;ratioP2
11791;SDS011;5953;52.372;9.918;2022-12-10T00:01:45;48.70;;;19.33;;
11791;SDS011;5953;52.372;9.918;2022-12-10T00:04:14;44.60;;;18.60;;
11791;SDS011;5953;52.372;9.918;2022-12-10T00:06:42;55.10;;;21.57;;
11791;SDS011;5953;52.372;9.918;2022-12-10T00:09:11;58.47;;;21.57;;
11791;SDS011;5953;52.372;9.918;2022-12-10T00:11:41;49.33;;;19.73;;
11791;SDS011;5953;52.372;9.918;2022-12-10T00:14:10;57.23;;;19.20;;
11791;SDS011;5953;52.372;9.918;2022-12-10T00:16:41;57.73;;;19.63;;
11791;SDS011;5953;52.372;9.918;2022-12-10T00:19:11;63.30;;;18.83;;
11791;SDS011;5953;52.372;9.918;2022-12-10T00:21:39;58.40;;;18.60;;
11791;SDS011;5953;52.372;9.918;2022-12-10T00:24:07;62.23;;;22.10;;
11791;SDS011;5953;52.372;9.918;2022-12-10T00:26:37;55.23;;;18.63;;
11791;SDS011;5953;52.372;9.918;2022-12-10T00:29:08;51.33;;;20.30;;
11791;SDS011;5953;52.372;9.918;2022-12-10T00:31:38;61.13;;;20.27;;
11791;SDS011;5953;52.372;9.918;2022-12-10T00:34:08;54.50;;;20.60;;
11791;SDS011;5953;52.372;9.918;2022-12-10T00:36:37;51.73;;;18.60;;
11791;SDS011;5953;52.372;9.918;2022-12-10T00:39:08;48.67;;;18.10;;
11791;SDS011;5953;52.372;9.918;2022-12-10T00:41:37;54.40;;;23.07;;
11791;SDS011;5953;52.372;9.918;2022-12-10T00:44:06;54.83;;;24.00;;
11791;SDS011;5953;52.372;9.918;2022-12-10T00:46:34;45.63;;;19.73;;
11791;SDS011;5953;52.372;9.918;2022-12-10T00:49:03;47.27;;;20.77;;
11791;SDS011;5953;52.372;9.918;2022-12-10T00:51:31;43.40;;;18.53;;
11791;SDS011;5953;52.372;9.918;2022-12-10T00:53:58;51.80;;;19.30;;
11791;SDS011;5953;52.372;9.918;2022-12-10T00:56:27;40.03;;;18.93;;
11791;SDS011;5953;52.372;9.918;2022-12-10T00:58:56;44.13;;;20.87;;
11791;SDS011;5953;52.372;9.918;2022-12-10T01:01:26;42.60;;;21.20;;
11791;SDS011;5953;52.372;9.918;2022-12-10T01:03:55;38.07;;;17.03;;
11791;SDS011;5953;52.372;9.918;2022-12-10T01:06:27;38.43;;;16.83;;
11791;SDS011;5953;52.372;9.918;2022-12-10T01:08:57;36.37;;;16.63;;
11791;SDS011;5953;52.372;9.918;2022-12-10T01:11:26;39.40;;;16.83;;
11791;SDS011;5953;52.372;9.918;2022-12-10T01:13:56;40.67;;;18.17;;
11791;SDS011;5953;52.372;9.918;2022-12-10T01:16:26;41.67;;;17.93;;
11791;SDS011;5953;52.372;9.918;2022-12-10T01:18:54;40.87;;;18.33;;
11791;SDS011;5953;52.372;9.918;2022-12-10T01:21:25;37.10;;;14.60;;
11791;SDS011;5953;52.372;9.918;2022-12-10T01:23:54;38.93;;;17.43;;
11791;SDS011;5953;52.372;9.918;2022-12-10T01:26:25;42.27;;;17.53;;
11791;SDS011;5953;52.372;9.918;2022-12-10T01:28:54;42.50;;;18.80;;
11791;SDS011;5953;52.372;9.918;2022-12-10T01:31:23;40.43;;;17.60;;
11791;SDS011;5953;52.372;9.918;2022-12-10T01:33:54;34.80;;;15.10;;
11791;SDS011;5953;52.372;9.918;2022-12-10T01:36:23;35.87;;;18.57;;
11791;SDS011;5953;52.372;9.918;2022-12-10T01:38:52;37.67;;;18.37;;
11791;SDS011;5953;52.372;9.918;2022-12-10T01:41:21;41.53;;;18.33;;
11791;SDS011;5953;52.372;9.918;2022-12-10T01:43:52;40.00;;;17.67;;
11791;SDS011;5953;52.372;9.918;2022-12-10T01:46:22;38.50;;;17.27;;
11791;SDS011;5953;52.372;9.918;2022-12-10T01:48:52;41.07;;;17.00;;
11791;SDS011;5953;52.372;9.918;2022-12-10T01:51:21;34.23;;;13.80;;
11791;SDS011;5953;52.372;9.918;2022-12-10T01:53:49;41.33;;;15.50;;
11791;SDS011;5953;52.372;9.918;2022-12-10T01:56:19;38.47;;;16.07;;
11791;SDS011;5953;52.372;9.918;2022-12-10T01:58:48;37.50;;;15.87;;
11791;SDS011;5953;52.372;9.918;2022-12-10T02:01:21;36.33;;;16.60;;
11791;SDS011;5953;52.372;9.918;2022-12-10T02:04:01;37.57;;;18.17;;
11791;SDS011;5953;52.372;9.918;2022-12-10T02:06:39;34.33;;;16.97;;
11791;SDS011;5953;52.372;9.918;2022-12-10T02:09:15;35.53;;;16.00;;
11791;SDS011;5953;52.372;9.918;2022-12-10T02:11:50;33.67;;;16.50;;
11791;SDS011;5953;52.372;9.918;2022-12-10T02:14:27;34.30;;;15.00;;
11791;SDS011;5953;52.372;9.918;2022-12-10T02:16:58;31.00;;;12.97;;
11791;SDS011;5953;52.372;9.918;2022-12-10T02:19:35;35.20;;;15.67;;
11791;SDS011;5953;52.372;9.918;2022-12-10T02:22:19;34.27;;;15.73;;
11791;SDS011;5953;52.372;9.918;2022-12-10T02:24:49;32.43;;;15.67;;
11791;SDS011;5953;52.372;9.918;2022-12-10T02:27:21;36.80;;;16.47;;
11791;SDS011;5953;52.372;9.918;2022-12-10T02:29:54;35.13;;;16.63;;
11791;SDS011;5953;52.372;9.918;2022-12-10T02:32:25;28.23;;;13.97;;
11791;SDS011;5953;52.372;9.918;2022-12-10T02:34:58;30.67;;;13.30;;
11791;SDS011;5953;52.372;9.918;2022-12-10T02:37:34;30.77;;;14.00;;
11791;SDS011;5953;52.372;9.918;2022-12-10T02:40:04;32.80;;;15.03;;
11791;SDS011;5953;52.372;9.918;2022-12-10T02:42:37;31.27;;;15.17;;
11791;SDS011;5953;52.372;9.918;2022-12-10T02:45:09;37.13;;;16.23;;
11791;SDS011;5953;52.372;9.918;2022-12-10T02:47:38;36.50;;;17.40;;
11791;SDS011;5953;52.372;9.918;2022-12-10T02:50:07;36.23;;;17.27;;
11791;SDS011;5953;52.372;9.918;2022-12-10T02:52:37;33.00;;;15.30;;
11791;SDS011;5953;52.372;9.918;2022-12-10T02:55:05;47.40;;;13.57;;
11791;SDS011;5953;52.372;9.918;2022-12-10T02:57:35;41.43;;;15.00;;
11791;SDS011;5953;52.372;9.918;2022-12-10T03:00:09;35.50;;;15.13;;
11791;SDS011;5953;52.372;9.918;2022-12-10T03:02:45;41.93;;;16.90;;
11791;SDS011;5953;52.372;9.918;2022-12-10T03:05:33;32.70;;;13.40;;
11791;SDS011;5953;52.372;9.918;2022-12-10T03:08:09;39.77;;;12.33;;
11791;SDS011;5953;52.372;9.918;2022-12-10T03:10:41;64.27;;;15.33;;
11791;SDS011;5953;52.372;9.918;2022-12-10T03:13:13;49.93;;;16.47;;
11791;SDS011;5953;52.372;9.918;2022-12-10T03:15:45;35.27;;;15.40;;
11791;SDS011;5953;52.372;9.918;2022-12-10T03:18:15;49.37;;;16.53;;
11791;SDS011;5953;52.372;9.918;2022-12-10T03:20:46;41.60;;;16.80;;
11791;SDS011;5953;52.372;9.918;2022-12-10T03:23:16;42.10;;;17.30;;
11791;SDS011;5953;52.372;9.918;2022-12-10T03:25:46;37.70;;;17.57;;
11791;SDS011;5953;52.372;9.918;2022-12-10T03:28:16;38.47;;;17.17;;
11791;SDS011;5953;52.372;9.918;2022-12-10T03:30:47;41.63;;;16.53;;
11791;SDS011;5953;52.372;9.918;2022-12-10T03:33:17;36.73;;;15.60;;
11791;SDS011;5953;52.372;9.918;2022-12-10T03:35:45;41.17;;;17.53;;
11791;SDS011;5953;52.372;9.918;2022-12-10T03:38:14;38.20;;;15.90;;
11791;SDS011;5953;52.372;9.918;2022-12-10T03:40:42;41.30;;;15.93;;
11791;SDS011;5953;52.372;9.918;2022-12-10T03:43:11;31.40;;;15.00;;
11791;SDS011;5953;52.372;9.918;2022-12-10T03:45:40;27.77;;;14.33;;
11791;SDS011;5953;52.372;9.918;2022-12-10T03:48:09;26.63;;;12.97;;
11791;SDS011;5953;52.372;9.918;2022-12-10T03:50:37;25.27;;;12.33;;
11791;SDS011;5953;52.372;9.918;2022-12-10T03:53:05;24.50;;;12.50;;
11791;SDS011;5953;52.372;9.918;2022-12-10T03:55:33;24.47;;;12.03;;
11791;SDS011;5953;52.372;9.918;2022-12-10T03:58:00;29.17;;;14.67;;
11791;SDS011;5953;52.372;9.918;2022-12-10T04:00:28;26.33;;;12.40;;
11791;SDS011;5953;52.372;9.918;2022-12-10T04:02:56;22.77;;;12.23;;
11791;SDS011;5953;52.372;9.918;2022-12-10T04:05:25;24.13;;;13.37;;
11791;SDS011;5953;52.372;9.918;2022-12-10T04:07:53;24.47;;;13.43;;
11791;SDS011;5953;52.372;9.918;2022-12-10T04:10:21;26.97;;;13.97;;
11791;SDS011;5953;52.372;9.918;2022-12-10T04:12:49;24.27;;;12.57;;
11791;SDS011;5953;52.372;9.918;2022-12-10T04:15:38;24.67;;;12.53;;
11791;SDS011;5953;52.372;9.918;2022-12-10T04:18:23;25.90;;;12.93;;
11791;SDS011;5953;52.372;9.918;2022-12-10T04:20:52;22.80;;;11.73;;
11791;SDS011;5953;52.372;9.918;2022-12-10T04:23:38;20.07;;;10.70;;
11791;SDS011;5953;52.372;9.918;2022-12-10T04:26:23;19.03;;;10.17;;
11791;SDS011;5953;52.372;9.918;2022-12-10T04:29:08;19.50;;;11.13;;
11791;SDS011;5953;52.372;9.918;2022-12-10T04:31:37;19.00;;;9.60;;
11791;SDS011;5953;52.372;9.918;2022-12-10T04:34:04;21.47;;;11.43;;
11791;SDS011;5953;52.372;9.918;2022-12-10T04:36:33;18.23;;;9.90;;
11791;SDS011;5953;52.372;9.918;2022-12-10T04:39:02;19.30;;;9.97;;
11791;SDS011;5953;52.372;9.918;2022-12-10T04:41:30;19.47;;;10.20;;
11791;SDS011;5953;52.372;9.918;2022-12-10T04:43:58;14.60;;;7.80;;
11791;SDS011;5953;52.372;9.918;2022-12-10T04:46:26;13.10;;;7.17;;
11791;SDS011;5953;52.372;9.918;2022-12-10T04:48:55;18.47;;;10.50;;
11791;SDS011;5953;52.372;9.918;2022-12-10T04:51:23;16.70;;;9.90;;
11791;SDS011;5953;52.372;9.918;2022-12-10T04:53:52;16.40;;;9.47;;
11791;SDS011;5953;52.372;9.918;2022-12-10T04:56:19;17.33;;;9.33;;
11791;SDS011;5953;52.372;9.918;2022-12-10T04:58:47;17.50;;;9.73;;
11791;SDS011;5953;52.372;9.918;2022-12-10T05:01:15;17.90;;;9.67;;
11791;SDS011;5953;52.372;9.918;2022-12-10T05:03:44;16.27;;;9.00;;
11791;SDS011;5953;52.372;9.918;2022-12-10T05:06:13;17.70;;;9.40;;
11791;SDS011;5953;52.372;9.918;2022-12-10T05:08:43;20.50;;;10.80;;
11791;SDS011;5953;52.372;9.918;2022-12-10T05:11:13;18.17;;;10.53;;
11791;SDS011;5953;52.372;9.918;2022-12-10T05:13:42;18.23;;;9.30;;
11791;SDS011;5953;52.372;9.918;2022-12-10T05:16:10;17.30;;;9.83;;
11791;SDS011;5953;52.372;9.918;2022-12-10T05:18:39;19.47;;;10.30;;
11791;SDS011;5953;52.372;9.918;2022-12-10T05:21:09;13.60;;;8.20;;
11791;SDS011;5953;52.372;9.918;2022-12-10T05:23:38;20.83;;;9.77;;
11791;SDS011;5953;52.372;9.918;2022-12-10T05:26:08;18.90;;;10.17;;
11791;SDS011;5953;52.372;9.918;2022-12-10T05:28:39;16.30;;;9.30;;
11791;SDS011;5953;52.372;9.918;2022-12-10T05:31:11;15.97;;;8.60;;
11791;SDS011;5953;52.372;9.918;2022-12-10T05:33:40;16.03;;;8.77;;
11791;SDS011;5953;52.372;9.918;2022-12-10T05:36:09;13.33;;;7.10;;
11791;SDS011;5953;52.372;9.918;2022-12-10T05:38:38;16.27;;;8.27;;
11791;SDS011;5953;52.372;9.918;2022-12-10T05:41:07;16.67;;;7.97;;
11791;SDS011;5953;52.372;9.918;2022-12-10T05:43:36;13.60;;;7.87;;
11791;SDS011;5953;52.372;9.918;2022-12-10T05:46:06;15.47;;;9.07;;
11791;SDS011;5953;52.372;9.918;2022-12-10T05:48:37;14.83;;;8.80;;
11791;SDS011;5953;52.372;9.918;2022-12-10T05:51:06;17.30;;;8.73;;
11791;SDS011;5953;52.372;9.918;2022-12-10T05:53:35;16.63;;;8.70;;
11791;SDS011;5953;52.372;9.918;2022-12-10T05:56:03;14.17;;;7.63;;
11791;SDS011;5953;52.372;9.918;2022-12-10T05:58:33;17.00;;;9.60;;
11791;SDS011;5953;52.372;9.918;2022-12-10T06:01:05;16.77;;;9.60;;
11791;SDS011;5953;52.372;9.918;2022-12-10T06:03:33;18.70;;;9.13;;
11791;SDS011;5953;52.372;9.918;2022-12-10T06:06:01;14.60;;;8.17;;
11791;SDS011;5953;52.372;9.918;2022-12-10T06:08:29;12.40;;;6.80;;
11791;SDS011;5953;52.372;9.918;2022-12-10T06:11:00;12.60;;;7.87;;
11791;SDS011;5953;52.372;9.918;2022-12-10T06:13:28;17.90;;;9.87;;
11791;SDS011;5953;52.372;9.918;2022-12-10T06:15:55;17.33;;;8.90;;
11791;SDS011;5953;52.372;9.918;2022-12-10T06:18:25;17.17;;;9.40;;
11791;SDS011;5953;52.372;9.918;2022-12-10T06:20:52;21.00;;;10.50;;
11791;SDS011;5953;52.372;9.918;2022-12-10T06:23:20;20.03;;;10.00;;
11791;SDS011;5953;52.372;9.918;2022-12-10T06:25:48;21.33;;;11.83;;
11791;SDS011;5953;52.372;9.918;2022-12-10T06:28:16;22.40;;;12.00;;
11791;SDS011;5953;52.372;9.918;2022-12-10T06:30:44;22.23;;;12.90;;
11791;SDS011;5953;52.372;9.918;2022-12-10T06:33:11;23.87;;;12.13;;
11791;SDS011;5953;52.372;9.918;2022-12-10T06:35:40;27.73;;;12.47;;
11791;SDS011;5953;52.372;9.918;2022-12-10T06:38:08;22.47;;;11.67;;
11791;SDS011;5953;52.372;9.918;2022-12-10T06:40:38;26.17;;;12.20;;
11791;SDS011;5953;52.372;9.918;2022-12-10T06:43:06;25.53;;;12.80;;
11791;SDS011;5953;52.372;9.918;2022-12-10T06:45:37;24.70;;;13.37;;
11791;SDS011;5953;52.372;9.918;2022-12-10T06:48:05;30.67;;;13.23;;
11791;SDS011;5953;52.372;9.918;2022-12-10T06:50:33;27.73;;;13.47;;
11791;SDS011;5953;52.372;9.918;2022-12-10T06:53:03;26.70;;;12.07;;
11791;SDS011;5953;52.372;9.918;2022-12-10T06:55:31;30.03;;;14.30;;
11791;SDS011;5953;52.372;9.918;2022-12-10T06:57:58;29.87;;;13.43;;
11791;SDS011;5953;52.372;9.918;2022-12-10T07:00:26;24.93;;;12.57;;
11791;SDS011;5953;52.372;9.918;2022-12-10T07:02:54;23.77;;;11.80;;
11791;SDS011;5953;52.372;9.918;2022-12-10T07:05:22;28.53;;;13.33;;
11791;SDS011;5953;52.372;9.918;2022-12-10T07:07:50;26.40;;;14.30;;
11791;SDS011;5953;52.372;9.918;2022-12-10T07:10:19;26.00;;;13.20;;
11791;SDS011;5953;52.372;9.918;2022-12-10T07:12:47;28.03;;;13.80;;
11791;SDS011;5953;52.372;9.918;2022-12-10T07:15:15;24.80;;;12.07;;
11791;SDS011;5953;52.372;9.918;2022-12-10T07:17:43;27.57;;;13.17;;
11791;SDS011;5953;52.372;9.918;2022-12-10T07:20:11;23.70;;;11.97;;
11791;SDS011;5953;52.372;9.918;2022-12-10T07:22:39;25.80;;;12.43;;
11791;SDS011;5953;52.372;9.918;2022-12-10T07:25:07;25.33;;;12.40;;
11791;SDS011;5953;52.372;9.918;2022-12-10T07:27:36;25.80;;;12.30;;
11791;SDS011;5953;52.372;9.918;2022-12-10T07:30:05;25.53;;;13.87;;
11791;SDS011;5953;52.372;9.918;2022-12-10T07:32:33;22.50;;;11.77;;
11791;SDS011;5953;52.372;9.918;2022-12-10T07:35:01;21.97;;;11.90;;
11791;SDS011;5953;52.372;9.918;2022-12-10T07:37:29;21.90;;;11.30;;
11791;SDS011;5953;52.372;9.918;2022-12-10T07:39:57;21.97;;;11.20;;
11791;SDS011;5953;52.372;9.918;2022-12-10T07:42:24;27.50;;;11.57;;
11791;SDS011;5953;52.372;9.918;2022-12-10T07:44:54;22.97;;;11.27;;
11791;SDS011;5953;52.372;9.918;2022-12-10T07:47:21;27.43;;;12.67;;
11791;SDS011;5953;52.372;9.918;2022-12-10T07:49:49;29.30;;;13.03;;
11791;SDS011;5953;52.372;9.918;2022-12-10T07:52:19;25.80;;;13.70;;
11791;SDS011;5953;52.372;9.918;2022-12-10T07:54:47;24.30;;;11.83;;
11791;SDS011;5953;52.372;9.918;2022-12-10T07:57:15;53.73;;;24.47;;
11791;SDS011;5953;52.372;9.918;2022-12-10T07:59:43;28.53;;;14.57;;
11791;SDS011;5953;52.372;9.918;2022-12-10T08:02:12;30.10;;;14.50;;
11791;SDS011;5953;52.372;9.918;2022-12-10T08:04:39;30.53;;;14.93;;
11791;SDS011;5953;52.372;9.918;2022-12-10T08:07:07;26.60;;;14.30;;
11791;SDS011;5953;52.372;9.918;2022-12-10T08:09:35;27.73;;;12.67;;
11791;SDS011;5953;52.372;9.918;2022-12-10T08:12:03;33.90;;;17.00;;
11791;SDS011;5953;52.372;9.918;2022-12-10T08:14:31;28.17;;;14.57;;
11791;SDS011;5953;52.372;9.918;2022-12-10T08:16:59;27.97;;;14.20;;
11791;SDS011;5953;52.372;9.918;2022-12-10T08:19:28;30.27;;;14.20;;
11791;SDS011;5953;52.372;9.918;2022-12-10T08:21:57;29.33;;;13.63;;
11791;SDS011;5953;52.372;9.918;2022-12-10T08:24:25;31.27;;;14.30;;
11791;SDS011;5953;52.372;9.918;2022-12-10T08:26:53;26.27;;;13.80;;
11791;SDS011;5953;52.372;9.918;2022-12-10T08:29:21;21.87;;;10.63;;
11791;SDS011;5953;52.372;9.918;2022-12-10T08:31:49;30.27;;;13.87;;
11791;SDS011;5953;52.372;9.918;2022-12-10T08:34:17;30.30;;;15.00;;
11791;SDS011;5953;52.372;9.918;2022-12-10T08:36:47;31.87;;;14.63;;
11791;SDS011;5953;52.372;9.918;2022-12-10T08:39:15;29.90;;;13.83;;
11791;SDS011;5953;52.372;9.918;2022-12-10T08:41:44;35.70;;;15.07;;
11791;SDS011;5953;52.372;9.918;2022-12-10T08:44:12;31.83;;;14.40;;
11791;SDS011;5953;52.372;9.918;2022-12-10T08:46:40;29.90;;;14.50;;
11791;SDS011;5953;52.372;9.918;2022-12-10T08:49:08;33.90;;;14.93;;
11791;SDS011;5953;52.372;9.918;2022-12-10T08:51:36;31.60;;;13.83;;
11791;SDS011;5953;52.372;9.918;2022-12-10T08:54:05;30.87;;;13.90;;
11791;SDS011;5953;52.372;9.918;2022-12-10T08:56:33;25.70;;;12.60;;
11791;SDS011;5953;52.372;9.918;2022-12-10T08:59:01;28.33;;;13.67;;
11791;SDS011;5953;52.372;9.918;2022-12-10T09:01:28;27.87;;;12.80;;
11791;SDS011;5953;52.372;9.918;2022-12-10T09:03:56;30.23;;;14.80;;
11791;SDS011;5953;52.372;9.918;2022-12-10T09:06:24;30.80;;;14.03;;
11791;SDS011;5953;52.372;9.918;2022-12-10T09:08:52;26.93;;;12.60;;
11791;SDS011;5953;52.372;9.918;2022-12-10T09:11:22;29.20;;;12.90;;
11791;SDS011;5953;52.372;9.918;2022-12-10T09:13:53;26.83;;;11.73;;
11791;SDS011;5953;52.372;9.918;2022-12-10T09:16:26;24.63;;;12.63;;
11791;SDS011;5953;52.372;9.918;2022-12-10T09:18:55;26.17;;;12.13;;
11791;SDS011;5953;52.372;9.918;2022-12-10T09:21:23;25.40;;;11.90;;
11791;SDS011;5953;52.372;9.918;2022-12-10T09:23:51;27.03;;;12.67;;
11791;SDS011;5953;52.372;9.918;2022-12-10T09:26:19;24.77;;;13.30;;
11791;SDS011;5953;52.372;9.918;2022-12-10T09:28:49;33.60;;;14.53;;
11791;SDS011;5953;52.372;9.918;2022-12-10T09:31:19;24.40;;;11.73;;
11791;SDS011;5953;52.372;9.918;2022-12-10T09:33:48;24.97;;;12.17;;
11791;SDS011;5953;52.372;9.918;2022-12-10T09:36:18;21.67;;;11.17;;
11791;SDS011;5953;52.372;9.918;2022-12-10T09:38:47;24.37;;;12.50;;
11791;SDS011;5953;52.372;9.918;2022-12-10T09:41:20;29.13;;;13.10;;
11791;SDS011;5953;52.372;9.918;2022-12-10T09:44:05;26.60;;;12.20;;
11791;SDS011;5953;52.372;9.918;2022-12-10T09:46:41;30.53;;;12.73;;
11791;SDS011;5953;52.372;9.918;2022-12-10T09:49:17;25.30;;;12.37;;
11791;SDS011;5953;52.372;9.918;2022-12-10T09:51:54;23.47;;;12.07;;
11791;SDS011;5953;52.372;9.918;2022-12-10T09:54:25;23.90;;;11.83;;
11791;SDS011;5953;52.372;9.918;2022-12-10T09:56:55;25.33;;;12.33;;
11791;SDS011;5953;52.372;9.918;2022-12-10T09:59:27;25.70;;;13.50;;
11791;SDS011;5953;52.372;9.918;2022-12-10T10:02:02;25.20;;;12.87;;
11791;SDS011;5953;52.372;9.918;2022-12-10T10:04:44;28.30;;;14.30;;
11791;SDS011;5953;52.372;9.918;2022-12-10T10:07:11;25.00;;;13.17;;
11791;SDS011;5953;52.372;9.918;2022-12-10T10:09:47;22.67;;;12.00;;
11791;SDS011;5953;52.372;9.918;2022-12-10T10:12:15;23.37;;;11.83;;
11791;SDS011;5953;52.372;9.918;2022-12-10T10:14:44;23.53;;;12.03;;
11791;SDS011;5953;52.372;9.918;2022-12-10T10:17:14;24.57;;;11.47;;
11791;SDS011;5953;52.372;9.918;2022-12-10T10:19:46;30.30;;;15.90;;
11791;SDS011;5953;52.372;9.918;2022-12-10T10:22:15;24.23;;;12.20;;
11791;SDS011;5953;52.372;9.918;2022-12-10T10:24:44;21.20;;;12.00;;
11791;SDS011;5953;52.372;9.918;2022-12-10T10:27:13;29.37;;;15.03;;
11791;SDS011;5953;52.372;9.918;2022-12-10T10:29:44;22.83;;;11.97;;
11791;SDS011;5953;52.372;9.918;2022-12-10T10:32:23;19.93;;;11.03;;
11791;SDS011;5953;52.372;9.918;2022-12-10T10:34:55;28.37;;;15.17;;
11791;SDS011;5953;52.372;9.918;2022-12-10T10:37:25;23.23;;;12.73;;
11791;SDS011;5953;52.372;9.918;2022-12-10T10:39:55;24.13;;;12.17;;
11791;SDS011;5953;52.372;9.918;2022-12-10T10:42:25;26.33;;;14.47;;
11791;SDS011;5953;52.372;9.918;2022-12-10T10:45:02;21.53;;;10.67;;
11791;SDS011;5953;52.372;9.918;2022-12-10T10:47:32;22.27;;;11.57;;
11791;SDS011;5953;52.372;9.918;2022-12-10T10:50:03;22.30;;;11.13;;
11791;SDS011;5953;52.372;9.918;2022-12-10T10:52:35;22.47;;;10.77;;
11791;SDS011;5953;52.372;9.918;2022-12-10T10:55:04;23.23;;;11.97;;
11791;SDS011;5953;52.372;9.918;2022-12-10T10:57:33;22.53;;;11.80;;
11791;SDS011;5953;52.372;9.918;2022-12-10T11:00:05;21.93;;;11.63;;
11791;SDS011;5953;52.372;9.918;2022-12-10T11:02:40;22.07;;;11.70;;
11791;SDS011;5953;52.372;9.918;2022-12-10T11:05:15;24.57;;;12.50;;
11791;SDS011;5953;52.372;9.918;2022-12-10T11:07:47;25.23;;;12.60;;
11791;SDS011;5953;52.372;9.918;2022-12-10T11:10:16;28.90;;;12.40;;
11791;SDS011;5953;52.372;9.918;2022-12-10T11:12:53;26.63;;;12.13;;
11791;SDS011;5953;52.372;9.918;2022-12-10T11:15:31;32.87;;;13.87;;
11791;SDS011;5953;52.372;9.918;2022-12-10T11:18:01;27.33;;;13.30;;
11791;SDS011;5953;52.372;9.918;2022-12-10T11:20:31;28.13;;;12.17;;
11791;SDS011;5953;52.372;9.918;2022-12-10T11:23:08;28.27;;;12.60;;
11791;SDS011;5953;52.372;9.918;2022-12-10T11:25:40;30.63;;;13.17;;
11791;SDS011;5953;52.372;9.918;2022-12-10T11:28:28;27.57;;;11.83;;
11791;SDS011;5953;52.372;9.918;2022-12-10T11:31:11;31.17;;;14.60;;
11791;SDS011;5953;52.372;9.918;2022-12-10T11:33:49;28.97;;;15.23;;
11791;SDS011;5953;52.372;9.918;2022-12-10T11:36:27;32.83;;;16.27;;
11791;SDS011;5953;52.372;9.918;2022-12-10T11:39:02;29.23;;;13.20;;
11791;SDS011;5953;52.372;9.918;2022-12-10T11:41:47;25.03;;;11.57;;
11791;SDS011;5953;52.372;9.918;2022-12-10T11:44:22;29.07;;;11.43;;
11791;SDS011;5953;52.372;9.918;2022-12-10T11:47:01;23.03;;;11.83;;
11791;SDS011;5953;52.372;9.918;2022-12-10T11:49:46;29.93;;;11.83;;
11791;SDS011;5953;52.372;9.918;2022-12-10T11:52:24;29.30;;;13.73;;
11791;SDS011;5953;52.372;9.918;2022-12-10T11:55:05;32.07;;;13.53;;
11791;SDS011;5953;52.372;9.918;2022-12-10T11:57:46;30.83;;;15.27;;
11791;SDS011;5953;52.372;9.918;2022-12-10T12:00:20;27.70;;;13.33;;
11791;SDS011;5953;52.372;9.918;2022-12-10T12:02:58;28.73;;;13.03;;
11791;SDS011;5953;52.372;9.918;2022-12-10T12:05:45;29.90;;;13.87;;
11791;SDS011;5953;52.372;9.918;2022-12-10T12:08:21;26.77;;;11.60;;
11791;SDS011;5953;52.372;9.918;2022-12-10T12:11:03;28.00;;;12.37;;
11791;SDS011;5953;52.372;9.918;2022-12-10T12:13:39;22.90;;;12.13;;
11791;SDS011;5953;52.372;9.918;2022-12-10T12:16:13;26.50;;;12.40;;
11791;SDS011;5953;52.372;9.918;2022-12-10T12:18:46;30.50;;;13.40;;
11791;SDS011;5953;52.372;9.918;2022-12-10T12:21:18;27.77;;;13.97;;
11791;SDS011;5953;52.372;9.918;2022-12-10T12:23:49;30.53;;;13.43;;
11791;SDS011;5953;52.372;9.918;2022-12-10T12:26:27;25.07;;;12.20;;
11791;SDS011;5953;52.372;9.918;2022-12-10T12:29:00;24.73;;;12.93;;
11791;SDS011;5953;52.372;9.918;2022-12-10T12:31:37;25.03;;;12.47;;
11791;SDS011;5953;52.372;9.918;2022-12-10T12:34:13;26.93;;;12.83;;
11791;SDS011;5953;52.372;9.918;2022-12-10T12:36:45;26.50;;;12.97;;
11791;SDS011;5953;52.372;9.918;2022-12-10T12:39:16;32.40;;;14.63;;
11791;SDS011;5953;52.372;9.918;2022-12-10T12:41:48;34.00;;;15.47;;
11791;SDS011;5953;52.372;9.918;2022-12-10T12:44:28;31.83;;;16.20;;
11791;SDS011;5953;52.372;9.918;2022-12-10T12:47:02;30.83;;;14.27;;
11791;SDS011;5953;52.372;9.918;2022-12-10T12:49:39;28.20;;;13.43;;
11791;SDS011;5953;52.372;9.918;2022-12-10T12:52:12;37.97;;;15.43;;
11791;SDS011;5953;52.372;9.918;2022-12-10T12:54:47;33.37;;;15.60;;
11791;SDS011;5953;52.372;9.918;2022-12-10T12:57:18;29.73;;;13.87;;
11791;SDS011;5953;52.372;9.918;2022-12-10T12:59:54;28.10;;;13.30;;
11791;SDS011;5953;52.372;9.918;2022-12-10T13:05:20;37.70;;;18.60;;
11791;SDS011;5953;52.372;9.918;2022-12-10T13:10:59;59.13;;;26.70;;
11791;SDS011;5953;52.372;9.918;2022-12-10T13:14:01;36.50;;;16.60;;
11791;SDS011;5953;52.372;9.918;2022-12-10T13:17:02;27.07;;;14.03;;
11791;SDS011;5953;52.372;9.918;2022-12-10T13:20:00;33.17;;;21.73;;
11791;SDS011;5953;52.372;9.918;2022-12-10T13:22:59;30.80;;;17.10;;
11791;SDS011;5953;52.372;9.918;2022-12-10T13:25:37;34.60;;;16.67;;
11791;SDS011;5953;52.372;9.918;2022-12-10T13:28:20;28.93;;;13.57;;
11791;SDS011;5953;52.372;9.918;2022-12-10T13:34:05;24.60;;;13.10;;
11791;SDS011;5953;52.372;9.918;2022-12-10T13:37:06;28.73;;;12.30;;
11791;SDS011;5953;52.372;9.918;2022-12-10T13:39:47;30.33;;;16.70;;
11791;SDS011;5953;52.372;9.918;2022-12-10T13:42:28;32.57;;;14.87;;
11791;SDS011;5953;52.372;9.918;2022-12-10T13:45:24;26.27;;;14.00;;
11791;SDS011;5953;52.372;9.918;2022-12-10T13:48:15;28.17;;;16.10;;
11791;SDS011;5953;52.372;9.918;2022-12-10T13:51:18;24.57;;;13.77;;
11791;SDS011;5953;52.372;9.918;2022-12-10T13:54:08;26.00;;;13.97;;
11791;SDS011;5953;52.372;9.918;2022-12-10T13:56:51;26.60;;;13.60;;
11791;SDS011;5953;52.372;9.918;2022-12-10T13:59:28;32.20;;;16.87;;
11791;SDS011;5953;52.372;9.918;2022-12-10T14:02:13;28.50;;;15.03;;
11791;SDS011;5953;52.372;9.918;2022-12-10T14:05:04;22.30;;;10.93;;
11791;SDS011;5953;52.372;9.918;2022-12-10T14:07:47;24.97;;;14.03;;
11791;SDS011;5953;52.372;9.918;2022-12-10T14:10:21;26.17;;;14.17;;
11791;SDS011;5953;52.372;9.918;2022-12-10T14:12:54;31.53;;;16.57;;
11791;SDS011;5953;52.372;9.918;2022-12-10T14:15:22;26.67;;;14.23;;
11791;SDS011;5953;52.372;9.918;2022-12-10T14:17:53;29.47;;;15.30;;
11791;SDS011;5953;52.372;9.918;2022-12-10T14:20:28;26.40;;;13.43;;
11791;SDS011;5953;52.372;9.918;2022-12-10T14:22:57;29.10;;;15.03;;
11791;SDS011;5953;52.372;9.918;2022-12-10T14:25:46;27.73;;;16.33;;
11791;SDS011;5953;52.372;9.918;2022-12-10T14:28:15;27.50;;;15.00;;
11791;SDS011;5953;52.372;9.918;2022-12-10T14:30:45;25.30;;;13.57;;
11791;SDS011;5953;52.372;9.918;2022-12-10T14:33:15;27.90;;;13.80;;
11791;SDS011;5953;52.372;9.918;2022-12-10T14:35:46;38.70;;;19.20;;
11791;SDS011;5953;52.372;9.918;2022-12-10T14:38:16;33.67;;;16.23;;
11791;SDS011;5953;52.372;9.918;2022-12-10T14:40:48;27.77;;;14.10;;
11791;SDS011;5953;52.372;9.918;2022-12-10T14:43:17;29.23;;;15.23;;
11791;SDS011;5953;52.372;9.918;2022-12-10T14:45:48;30.40;;;14.27;;
11791;SDS011;5953;52.372;9.918;2022-12-10T14:48:20;29.27;;;14.83;;
11791;SDS011;5953;52.372;9.918;2022-12-10T14:50:47;27.40;;;13.47;;
11791;SDS011;5953;52.372;9.918;2022-12-10T14:53:16;24.93;;;13.77;;
11791;SDS011;5953;52.372;9.918;2022-12-10T14:55:55;32.10;;;15.87;;
11791;SDS011;5953;52.372;9.918;2022-12-10T14:58:28;28.50;;;14.30;;
11791;SDS011;5953;52.372;9.918;2022-12-10T15:01:09;30.37;;;13.83;;
11791;SDS011;5953;52.372;9.918;2022-12-10T15:03:43;28.30;;;15.03;;
11791;SDS011;5953;52.372;9.918;2022-12-10T15:06:13;27.20;;;14.70;;
11791;SDS011;5953;52.372;9.918;2022-12-10T15:08:44;40.57;;;18.77;;
11791;SDS011;5953;52.372;9.918;2022-12-10T15:11:15;50.10;;;24.70;;
11791;SDS011;5953;52.372;9.918;2022-12-10T15:13:46;40.67;;;21.40;;